Chadron, Nebraska
Current Conditions -  °F | °C
As of 12:52 PM on Friday 28 Nov 2014 (Local Time) from KIEN Reporting Station
Clear Clear  
Wind Chill: 63°   Ceiling: Unl
Heat Index: 63°   Visibility: 10mi
Dew Point: 29°   Wind: 12mph
Humidity: 28%   Direction: 260°W
Pressure: 29.66"   Gusts: 18mph
Location:  42.83°N, 103°W
Report Text: KIEN 281952Z AUTO 26010G16KT 10SM CLR 17/M02 A2966 RMK AO2 SLP040 T01721017
Loading
Personal Weather Stations






























Interactive Weather Map New forecast layout! Learn more

10-Day Weather Forecast

Advertisements
Track Severe Weather on mobile